createdAt,value
2018-12-25T00:01:01.876Z,21.97
2018-12-25T00:03:31.679Z,19.13
2018-12-25T00:06:02.381Z,21.75
2018-12-25T00:08:32.600Z,21.17
2018-12-25T00:11:02.709Z,17.67
2018-12-25T00:13:32.597Z,19.33
2018-12-25T00:16:02.705Z,22.48
2018-12-25T00:18:32.691Z,20.70
2018-12-25T00:21:04.252Z,21.73
2018-12-25T00:23:34.430Z,22.53
2018-12-25T00:26:04.365Z,20.00
2018-12-25T00:28:34.473Z,20.57
2018-12-25T00:31:04.362Z,21.10
2018-12-25T00:33:34.192Z,22.73
2018-12-25T00:36:04.020Z,19.80
2018-12-25T00:38:33.885Z,20.20
2018-12-25T00:41:04.285Z,23.10
2018-12-25T00:43:36.624Z,21.07
2018-12-25T00:46:07.737Z,22.95
2018-12-25T00:48:37.880Z,22.07
2018-12-25T00:51:07.660Z,21.50
2018-12-25T00:53:37.569Z,21.97
2018-12-25T00:56:07.510Z,21.93
2018-12-25T00:58:37.341Z,19.87
2018-12-25T01:01:07.229Z,28.63
2018-12-25T01:03:37.078Z,19.90
2018-12-25T01:06:06.914Z,27.30
2018-12-25T01:08:37.137Z,23.40
2018-12-25T01:11:07.559Z,23.20
2018-12-25T01:13:37.401Z,22.03
2018-12-25T01:16:07.309Z,22.90
2018-12-25T01:18:38.597Z,26.67
2018-12-25T01:21:08.849Z,28.80
2018-12-25T01:23:39.509Z,24.23
2018-12-25T01:26:09.360Z,25.32
2018-12-25T01:28:39.736Z,22.90
2018-12-25T01:31:10.806Z,22.83
2018-12-25T01:33:40.550Z,26.10
2018-12-25T01:36:10.401Z,24.30
2018-12-25T01:38:41.184Z,23.50
2018-12-25T01:41:11.012Z,21.90
2018-12-25T01:43:41.130Z,25.07
2018-12-25T01:46:10.992Z,22.07
2018-12-25T01:48:40.827Z,24.40
2018-12-25T01:51:13.328Z,24.83
2018-12-25T01:53:43.409Z,21.50
2018-12-25T01:56:13.546Z,23.83
2018-12-25T01:58:43.384Z,25.63
2018-12-25T02:01:13.872Z,29.30
2018-12-25T02:03:43.780Z,25.30
2018-12-25T02:06:13.604Z,29.80
2018-12-25T02:08:44.486Z,32.73
2018-12-25T02:12:09.996Z,32.87
2018-12-25T02:14:51.272Z,28.67
2018-12-25T02:20:48.714Z,28.90
2018-12-25T02:23:29.813Z,30.30
2018-12-25T02:26:11.410Z,32.40
2018-12-25T02:32:10.554Z,31.40
2018-12-25T02:34:51.993Z,31.60
2018-12-25T02:37:32.997Z,27.70
2018-12-25T02:43:52.025Z,28.85
2018-12-25T02:49:50.398Z,24.63
2018-12-25T02:52:31.953Z,23.70
2018-12-25T02:55:13.348Z,22.53
2018-12-25T03:01:11.018Z,21.97
2018-12-25T03:04:11.038Z,23.50
2018-12-25T03:06:52.245Z,23.13
2018-12-25T03:09:51.980Z,21.77
2018-12-25T03:12:33.009Z,24.57
2018-12-25T03:15:14.418Z,25.50
2018-12-25T03:17:55.549Z,26.73
2018-12-25T03:20:55.810Z,26.83
2018-12-25T03:26:40.799Z,27.48
2018-12-25T03:38:47.676Z,29.20
2018-12-25T03:48:12.966Z,30.70
2018-12-25T03:51:13.790Z,29.80
2018-12-25T03:53:54.951Z,28.15
2018-12-25T03:59:41.071Z,28.50
2018-12-25T04:02:22.542Z,31.20
2018-12-25T04:05:03.189Z,29.50
2018-12-25T04:10:48.548Z,28.47
2018-12-25T04:19:58.557Z,33.33
2018-12-25T04:28:48.717Z,42.27
2018-12-25T04:34:12.256Z,33.47
2018-12-25T04:36:53.439Z,32.57
2018-12-25T04:39:36.696Z,30.23
2018-12-25T04:45:36.205Z,31.85
2018-12-25T04:57:43.858Z,25.27
2018-12-25T05:00:43.925Z,23.42
2018-12-25T05:06:33.917Z,26.10
2018-12-25T05:09:15.101Z,24.80
2018-12-25T05:11:56.253Z,26.37
2018-12-25T05:14:55.901Z,25.13
2018-12-25T05:17:37.554Z,23.13
2018-12-25T05:20:20.425Z,23.70
2018-12-25T05:23:01.407Z,22.87
2018-12-25T05:31:55.268Z,23.33
2018-12-25T05:37:40.677Z,22.27
2018-12-25T05:40:22.216Z,26.15
2018-12-25T05:43:21.981Z,28.83
2018-12-25T05:46:02.881Z,25.57
2018-12-25T05:51:59.957Z,27.30
2018-12-25T05:55:00.020Z,25.13
2018-12-25T06:10:01.726Z,26.47
2018-12-25T06:19:09.636Z,24.23
2018-12-25T06:31:21.435Z,24.80
2018-12-25T06:37:39.915Z,22.73
2018-12-25T06:40:21.297Z,29.93
2018-12-25T06:46:06.182Z,31.50
2018-12-25T06:48:49.899Z,27.23
2018-12-25T06:57:40.330Z,27.58
2018-12-25T07:03:25.305Z,29.17
2018-12-25T07:15:33.286Z,29.67
2018-12-25T07:18:14.809Z,29.77
2018-12-25T07:24:02.383Z,29.20
2018-12-25T07:38:50.763Z,26.07
2018-12-25T08:01:47.389Z,20.80
2018-12-25T08:08:10.822Z,24.80
2018-12-25T08:11:16.957Z,21.80
2018-12-25T08:17:35.597Z,22.27
2018-12-25T08:23:34.176Z,22.10
2018-12-25T08:26:15.216Z,19.77
2018-12-25T08:28:56.664Z,21.30
2018-12-25T08:31:37.982Z,21.97
2018-12-25T08:34:19.429Z,20.50
2018-12-25T08:37:01.142Z,21.80
2018-12-25T08:40:00.944Z,26.63
2018-12-25T08:42:42.107Z,23.33
2018-12-25T08:45:42.185Z,22.03
2018-12-25T08:48:23.487Z,22.83
2018-12-25T08:51:04.782Z,21.40
2018-12-25T09:00:13.417Z,23.83
2018-12-25T09:12:27.649Z,23.98
2018-12-25T09:18:28.013Z,22.07
2018-12-25T09:27:22.401Z,21.43
2018-12-25T09:30:03.190Z,24.07
2018-12-25T09:38:57.160Z,26.60
2018-12-25T09:41:37.883Z,26.80
2018-12-25T09:44:19.345Z,21.73
2018-12-25T09:46:59.258Z,20.80
2018-12-25T09:53:16.094Z,23.73
2018-12-25T09:55:57.133Z,22.63
2018-12-25T09:58:38.386Z,23.50
2018-12-25T10:01:19.304Z,24.80
2018-12-25T10:04:00.329Z,20.67
2018-12-25T10:06:41.491Z,21.97
2018-12-25T10:09:22.675Z,26.20
2018-12-25T10:14:43.273Z,22.90
2018-12-25T10:20:43.944Z,19.70
2018-12-25T10:23:25.341Z,21.37
2018-12-25T10:26:07.121Z,22.33
2018-12-25T10:28:48.118Z,20.70
2018-12-25T10:31:29.849Z,22.17
2018-12-25T10:34:10.984Z,26.30
2018-12-25T10:36:52.781Z,24.07
2018-12-25T10:39:33.704Z,23.62
2018-12-25T10:42:14.537Z,25.45
2018-12-25T10:48:12.626Z,27.50
2018-12-25T11:00:39.847Z,23.55
2018-12-25T11:18:35.142Z,24.47
2018-12-25T11:25:21.196Z,25.70
2018-12-25T11:32:24.841Z,26.87
2018-12-25T11:35:47.985Z,20.53
2018-12-25T11:41:50.965Z,20.53
2018-12-25T11:47:42.795Z,33.70
2018-12-25T11:50:24.330Z,51.40
2018-12-25T11:53:05.206Z,27.90
2018-12-25T11:59:05.926Z,52.07
2018-12-25T12:05:06.083Z,36.10
2018-12-25T12:07:47.070Z,19.47
2018-12-25T12:10:27.692Z,23.27
2018-12-25T12:32:07.210Z,26.07
2018-12-25T12:34:55.997Z,25.60
2018-12-25T12:37:43.987Z,23.23
2018-12-25T12:46:32.078Z,23.53
2018-12-25T12:49:55.837Z,23.07
2018-12-25T12:52:45.665Z,26.82
2018-12-25T12:55:34.601Z,27.36
2018-12-25T13:07:06.478Z,31.03
2018-12-25T13:16:17.281Z,22.23
2018-12-25T13:19:23.595Z,26.90
2018-12-25T13:34:22.249Z,21.33
2018-12-25T13:37:10.730Z,19.60
2018-12-25T13:39:59.224Z,19.55
2018-12-25T13:48:30.684Z,24.70
2018-12-25T14:03:04.165Z,33.70
2018-12-25T14:05:45.227Z,24.87
2018-12-25T14:08:27.035Z,23.77
2018-12-25T14:14:26.261Z,29.65
2018-12-25T14:23:51.324Z,29.27
2018-12-25T14:26:33.960Z,33.43
2018-12-25T14:29:16.026Z,28.07
2018-12-25T14:31:56.995Z,31.30
2018-12-25T14:34:38.197Z,31.10
2018-12-25T14:37:19.372Z,38.10
2018-12-25T14:40:00.345Z,51.57
2018-12-25T14:42:41.798Z,33.55
2018-12-25T14:45:23.070Z,26.70
2018-12-25T14:51:41.846Z,24.77
2018-12-25T14:58:04.603Z,23.77
2018-12-25T15:00:45.892Z,18.52
2018-12-25T15:03:46.689Z,21.30
2018-12-25T15:09:45.966Z,23.70
2018-12-25T15:12:27.837Z,26.80
2018-12-25T15:15:34.706Z,28.40
2018-12-25T15:22:03.682Z,28.10
2018-12-25T15:27:40.934Z,23.00
2018-12-25T15:36:31.902Z,28.80
2018-12-25T15:42:14.833Z,27.63
2018-12-25T15:58:59.285Z,22.23
2018-12-25T16:01:48.110Z,31.77
2018-12-25T16:04:35.988Z,32.13
2018-12-25T16:14:01.226Z,24.07
2018-12-25T16:19:24.617Z,22.27
2018-12-25T16:22:06.081Z,23.20
2018-12-25T16:24:47.194Z,23.53
2018-12-25T16:27:27.413Z,27.47
2018-12-25T16:30:33.992Z,32.63
2018-12-25T16:33:59.601Z,27.30
2018-12-25T16:36:48.166Z,23.30
2018-12-25T16:46:39.726Z,24.82
2018-12-25T16:48:56.677Z,24.63
2018-12-25T16:52:01.883Z,26.30
2018-12-25T16:54:37.406Z,32.48
2018-12-25T16:57:26.180Z,30.17
2018-12-25T17:00:14.663Z,29.30
2018-12-25T17:03:03.151Z,29.07
2018-12-25T17:06:28.622Z,27.67
2018-12-25T17:18:37.029Z,35.00
2018-12-25T17:21:18.025Z,31.67
2018-12-25T17:24:02.315Z,26.40
2018-12-25T17:26:41.838Z,31.40
2018-12-25T17:32:29.681Z,35.98
2018-12-25T17:41:19.981Z,32.50
2018-12-25T17:44:20.068Z,34.37
2018-12-25T17:47:20.082Z,37.50
2018-12-25T17:50:01.319Z,39.83
2018-12-25T17:52:42.133Z,36.05
2018-12-25T18:40:37.385Z,49.10
2018-12-25T18:43:18.764Z,47.03
2018-12-25T18:52:26.074Z,48.13
2018-12-25T18:55:07.581Z,53.07
2018-12-25T19:03:56.706Z,57.90
2018-12-25T19:12:59.220Z,57.43
2018-12-25T19:15:40.049Z,55.52
2018-12-25T19:18:40.504Z,59.00
2018-12-25T19:21:21.706Z,71.10
2018-12-25T19:24:02.359Z,66.53
2018-12-25T19:26:43.045Z,55.23
2018-12-25T19:29:24.290Z,51.87
2018-12-25T20:05:29.436Z,76.67
2018-12-25T20:11:29.997Z,93.03
2018-12-25T20:14:11.077Z,113.80
2018-12-25T20:16:52.081Z,113.70
2018-12-25T20:19:33.058Z,100.93
2018-12-25T20:22:14.921Z,87.50
2018-12-25T20:24:55.984Z,90.23
2018-12-25T20:27:37.346Z,81.63
2018-12-25T20:30:19.233Z,80.95
2018-12-25T20:33:00.101Z,79.23
2018-12-25T20:35:41.552Z,72.85
2018-12-25T20:38:23.216Z,74.27
2018-12-25T20:41:04.230Z,76.60
2018-12-25T20:43:45.026Z,78.63
2018-12-25T20:46:26.323Z,78.13
2018-12-25T20:49:07.853Z,80.53
2018-12-25T20:51:48.876Z,90.13
2018-12-25T20:54:30.497Z,81.60
2018-12-25T21:00:31.026Z,75.53
2018-12-25T21:47:41.293Z,74.20
2018-12-25T22:15:23.586Z,64.53
